Skip Navigation Links Skip Navigation Links

Current Weather

Chicago O'Hare Intl, Chicago

For information only: do not use for flight planning or navigation.
Latest weather
Observation time Friday, April 20, 2018 2:51 AM CDT
Local time Friday, April 20, 2018 3:22 AM CDT
Flight conditions Visual Meteorological Conditions
Winds
Wind direction West-Northwest (290°)
Wind speed 5 mph
Visibility 10 mi.
Sky condition
Ceiling unlimited
Sky clear
Temperature 37°F
Dewpoint 23°F
Altimeter 30.44 in.Hg
Derived measurements
Relative humidity 56%
Wind chill 33°F
Density altitude -1341 ft.
Sea-level pressure 30.45 in.Hg
Remarks
Automated weather observing station with precipitation discriminator.
METAR KORD 200751Z 29004KT 10SM CLR 03/M05 A3044 RMK AO2 SLP311 T00281050

Settings

Location code

InnerDrive.Weather 4.0.6615.0 Release CLR 4.0.30319.42000
Copyright ©2018 Inner Drive Technology. All rights reserved. Portions Copyright ©1986-2018 David Braverman.

Find weather

Site navigation


Skip Navigation Links

Place info

Page info

PayPal - The safer, easier way to pay online!

Return home.

Copyright ©2018 Inner Drive Technology. Purveyors of fine, hand-crafted computer software. Page printed 2018-04-20T08:22:06 UTC.